Time;durP1;ratioP1;P1;durP2;ratioP2;P2;SDS_P1;SDS_P2;PMS_P1;PMS_P2;Temp;Humidity;BMP_temperature;BMP_pressure;BME280_temperature;BME280_humidity;BME280_pressure;Samples;Min_cycle;Max_cycle;Signal;HPM_P1;HPM_P2
2023/12/12 00:02:00;;;;;;;;;;;5.20;99.90;;;;;;4982413;28;21022;-70
2023/12/12 00:04:26;;;;;;;;;;;5.10;99.90;;;;;;4994831;28;19937;-70
2023/12/12 00:06:52;;;;;;;;;;;5.10;99.90;;;;;;4962836;28;19932;-70
2023/12/12 00:09:18;;;;;;;;;;;5.00;99.90;;;;;;4963166;28;19937;-70
2023/12/12 00:11:44;;;;;;;;;;;5.00;99.90;;;;;;4960947;28;19974;-70
2023/12/12 00:14:10;;;;;;;;;;;5.00;99.90;;;;;;5007627;28;19930;-71
2023/12/12 00:16:36;;;;;;;;;;;4.90;99.90;;;;;;4958866;28;19932;-71
2023/12/12 00:19:02;;;;;;;;;;;4.90;99.90;;;;;;4960947;28;19926;-70
2023/12/12 00:21:28;;;;;;;;;;;4.90;99.90;;;;;;4942086;28;20540;-70
2023/12/12 00:23:55;;;;;;;;;;;4.80;99.90;;;;;;4976341;28;19926;-70
2023/12/12 00:26:21;;;;;;;;;;;4.80;99.90;;;;;;4933049;28;19941;-70
2023/12/12 00:28:47;;;;;;;;;;;4.70;99.90;;;;;;4967915;28;19988;-69
2023/12/12 00:31:13;;;;;;;;;;;4.70;99.90;;;;;;4935464;28;19932;-70
2023/12/12 00:33:39;;;;;;;;;;;4.70;99.90;;;;;;4979954;28;20063;-70
2023/12/12 00:36:06;;;;;;;;;;;4.60;99.90;;;;;;4937161;28;19935;-70
2023/12/12 00:38:31;;;;;;;;;;;4.60;99.90;;;;;;4976548;28;20664;-70
2023/12/12 00:40:58;;;;;;;;;;;4.60;99.90;;;;;;4939837;28;20892;-70
2023/12/12 00:43:24;;;;;;;;;;;4.60;99.90;;;;;;4987967;28;19936;-70
2023/12/12 00:45:50;;;;;;;;;;;4.50;99.90;;;;;;4956717;28;19933;-71
2023/12/12 00:48:19;;;;;;;;;;;4.50;99.90;;;;;;5001724;28;19940;-70
2023/12/12 00:50:45;;;;;;;;;;;4.60;99.90;;;;;;4967435;28;19925;-70
2023/12/12 00:53:11;;;;;;;;;;;4.50;99.90;;;;;;4985595;28;20600;-70
2023/12/12 00:55:37;;;;;;;;;;;4.40;99.90;;;;;;5020595;28;19925;-70
2023/12/12 00:58:03;;;;;;;;;;;4.40;99.90;;;;;;4975896;28;19932;-70
2023/12/12 01:00:29;;;;;;;;;;;4.40;99.90;;;;;;4978260;28;20802;-70
2023/12/12 01:02:54;;;;;;;;;;;4.40;99.90;;;;;;4977902;28;19931;-70
2023/12/12 01:05:20;;;;;;;;;;;4.30;99.90;;;;;;4991142;28;19940;-70
2023/12/12 01:07:46;;;;;;;;;;;4.30;99.90;;;;;;4978408;28;19924;-69
2023/12/12 01:10:13;;;;;;;;;;;4.30;99.90;;;;;;5018829;28;19924;-69
2023/12/12 01:12:39;;;;;;;;;;;4.20;99.90;;;;;;4951527;28;20433;-69
2023/12/12 01:15:05;;;;;;;;;;;4.20;99.90;;;;;;4989457;28;19929;-69
2023/12/12 01:17:31;;;;;;;;;;;4.20;99.90;;;;;;4963615;28;19925;-70
2023/12/12 01:19:57;;;;;;;;;;;4.20;99.90;;;;;;4943990;28;19940;-70
2023/12/12 01:22:23;;;;;;;;;;;4.10;99.90;;;;;;4957590;28;20761;-70
2023/12/12 01:24:48;;;;;;;;;;;4.10;99.90;;;;;;4991274;28;21145;-70
2023/12/12 01:27:14;;;;;;;;;;;4.10;99.90;;;;;;4970842;28;19931;-70
2023/12/12 01:29:40;;;;;;;;;;;4.10;99.90;;;;;;4981195;28;19932;-69
2023/12/12 01:32:06;;;;;;;;;;;4.10;99.90;;;;;;4954767;28;19928;-70
2023/12/12 01:34:32;;;;;;;;;;;4.00;99.90;;;;;;4988145;28;20415;-70
2023/12/12 01:36:58;;;;;;;;;;;4.00;99.90;;;;;;4962891;28;19925;-70
2023/12/12 01:39:24;;;;;;;;;;;4.00;99.90;;;;;;4986723;28;20399;-70
2023/12/12 01:41:50;;;;;;;;;;;3.90;99.90;;;;;;4960197;28;19931;-69
2023/12/12 01:44:16;;;;;;;;;;;3.90;99.90;;;;;;4986750;28;19925;-69
2023/12/12 01:46:45;;;;;;;;;;;3.90;99.90;;;;;;4984497;28;19947;-70
2023/12/12 01:49:12;;;;;;;;;;;3.80;99.90;;;;;;4976497;28;19929;-71
2023/12/12 01:51:38;;;;;;;;;;;3.80;99.90;;;;;;4961346;28;19924;-71
2023/12/12 01:54:05;;;;;;;;;;;3.80;99.90;;;;;;4985592;28;19936;-69
2023/12/12 01:56:32;;;;;;;;;;;3.80;99.90;;;;;;4970881;28;21126;-69
2023/12/12 01:58:58;;;;;;;;;;;3.80;99.90;;;;;;4981123;28;19932;-70
2023/12/12 02:01:25;;;;;;;;;;;3.80;99.90;;;;;;4956323;28;19929;-69
2023/12/12 02:03:51;;;;;;;;;;;3.80;99.90;;;;;;4993942;28;19936;-70
2023/12/12 02:06:22;;;;;;;;;;;3.80;99.90;;;;;;4961015;28;20496;-69
2023/12/12 02:08:49;;;;;;;;;;;3.70;99.90;;;;;;4989184;28;19925;-70
2023/12/12 02:11:15;;;;;;;;;;;3.70;99.90;;;;;;4956669;28;19924;-70
2023/12/12 02:13:41;;;;;;;;;;;3.70;99.90;;;;;;4996152;28;19932;-71
2023/12/12 02:16:08;;;;;;;;;;;3.70;99.90;;;;;;4954871;28;19929;-71
2023/12/12 02:18:34;;;;;;;;;;;3.70;99.90;;;;;;4992290;28;19925;-71
2023/12/12 02:21:01;;;;;;;;;;;3.80;99.90;;;;;;4953601;28;20862;-70
2023/12/12 02:23:30;;;;;;;;;;;3.80;99.90;;;;;;4983031;28;19925;-70
2023/12/12 02:25:56;;;;;;;;;;;3.80;99.90;;;;;;4953836;28;20574;-70
2023/12/12 02:28:22;;;;;;;;;;;3.80;99.90;;;;;;4978873;28;19960;-70
2023/12/12 02:30:48;;;;;;;;;;;3.80;99.90;;;;;;4953656;28;19928;-70
2023/12/12 02:33:14;;;;;;;;;;;3.80;99.90;;;;;;4999242;28;19932;-71
2023/12/12 02:35:40;;;;;;;;;;;3.90;99.90;;;;;;4979594;28;20348;-68
2023/12/12 02:38:06;;;;;;;;;;;4.00;99.90;;;;;;4965385;28;19929;-71
2023/12/12 02:40:32;;;;;;;;;;;3.90;99.90;;;;;;4977308;28;19936;-70
2023/12/12 02:42:58;;;;;;;;;;;4.00;99.90;;;;;;4959147;28;20010;-70
2023/12/12 02:45:23;;;;;;;;;;;4.00;99.90;;;;;;5009836;28;19933;-69
2023/12/12 02:47:50;;;;;;;;;;;4.00;99.90;;;;;;4971103;28;19929;-70
2023/12/12 02:50:16;;;;;;;;;;;4.00;99.90;;;;;;4978166;28;20045;-69
2023/12/12 02:52:42;;;;;;;;;;;4.00;99.90;;;;;;4972672;28;19928;-69
2023/12/12 02:55:08;;;;;;;;;;;3.90;99.90;;;;;;4981195;28;20012;-70
2023/12/12 02:57:34;;;;;;;;;;;3.90;99.90;;;;;;4942225;28;19936;-70
2023/12/12 02:59:59;;;;;;;;;;;3.90;99.90;;;;;;4984054;28;19925;-69
2023/12/12 03:02:25;;;;;;;;;;;3.80;99.90;;;;;;4966501;28;19928;-71
2023/12/12 03:04:51;;;;;;;;;;;3.80;99.90;;;;;;4990348;28;20010;-70
2023/12/12 03:07:17;;;;;;;;;;;3.70;99.90;;;;;;4968859;28;19936;-70
2023/12/12 03:09:43;;;;;;;;;;;3.70;99.90;;;;;;4986557;28;19929;-71
2023/12/12 03:12:09;;;;;;;;;;;3.70;99.90;;;;;;4976893;28;19928;-70
2023/12/12 03:14:35;;;;;;;;;;;3.70;99.90;;;;;;4992843;28;19976;-70
2023/12/12 03:17:01;;;;;;;;;;;3.60;99.90;;;;;;4967645;28;20560;-70
2023/12/12 03:19:27;;;;;;;;;;;3.50;99.90;;;;;;4984171;28;19925;-70
2023/12/12 03:21:53;;;;;;;;;;;3.50;99.90;;;;;;4957010;28;19929;-70
2023/12/12 03:24:20;;;;;;;;;;;3.50;99.90;;;;;;4983438;28;19935;-70
2023/12/12 03:26:45;;;;;;;;;;;3.40;99.90;;;;;;4962480;28;20395;-71
2023/12/12 03:29:12;;;;;;;;;;;3.30;99.90;;;;;;4991563;28;19929;-71
2023/12/12 03:31:41;;;;;;;;;;;3.30;99.90;;;;;;4960349;28;19924;-71
2023/12/12 03:34:08;;;;;;;;;;;3.30;99.90;;;;;;4984777;28;19936;-71
2023/12/12 03:36:34;;;;;;;;;;;3.20;99.90;;;;;;4961825;28;19928;-71
2023/12/12 03:39:00;;;;;;;;;;;3.20;99.90;;;;;;4982051;28;19940;-71
2023/12/12 03:41:27;;;;;;;;;;;3.20;99.90;;;;;;4959434;28;19925;-71
2023/12/12 03:43:53;;;;;;;;;;;3.20;99.90;;;;;;4995657;28;20996;-71
2023/12/12 03:46:20;;;;;;;;;;;3.10;99.90;;;;;;4955321;28;19947;-70
2023/12/12 03:48:46;;;;;;;;;;;3.10;99.90;;;;;;5000267;28;19929;-71
2023/12/12 03:51:12;;;;;;;;;;;3.10;99.90;;;;;;4975385;28;19939;-70
2023/12/12 03:53:39;;;;;;;;;;;3.10;99.90;;;;;;4991677;28;19940;-70
2023/12/12 03:56:05;;;;;;;;;;;3.10;99.90;;;;;;4956647;28;19938;-69
2023/12/12 03:58:31;;;;;;;;;;;3.10;99.90;;;;;;4995820;28;20005;-69
2023/12/12 04:00:57;;;;;;;;;;;3.10;99.90;;;;;;4938862;28;21045;-69
2023/12/12 04:03:23;;;;;;;;;;;3.00;99.90;;;;;;4998723;28;19929;-70
2023/12/12 04:05:49;;;;;;;;;;;3.00;99.90;;;;;;4957346;28;19929;-70
2023/12/12 04:08:15;;;;;;;;;;;3.00;99.90;;;;;;4988825;28;19932;-70
2023/12/12 04:10:41;;;;;;;;;;;3.00;99.90;;;;;;4965563;28;19925;-71
2023/12/12 04:13:07;;;;;;;;;;;3.00;99.90;;;;;;4975451;28;19925;-70
2023/12/12 04:15:33;;;;;;;;;;;3.00;99.90;;;;;;4980754;28;20365;-69
2023/12/12 04:17:59;;;;;;;;;;;3.00;99.90;;;;;;4978445;28;19935;-70
2023/12/12 04:20:25;;;;;;;;;;;3.10;99.90;;;;;;4981798;28;19959;-70
2023/12/12 04:22:51;;;;;;;;;;;3.10;99.90;;;;;;4962322;28;19925;-70
2023/12/12 04:25:19;;;;;;;;;;;3.20;99.90;;;;;;4982441;28;20560;-70
2023/12/12 04:27:45;;;;;;;;;;;3.20;99.90;;;;;;4973346;28;19936;-70
2023/12/12 04:30:11;;;;;;;;;;;3.30;99.90;;;;;;4981739;28;19952;-70
2023/12/12 04:32:37;;;;;;;;;;;3.40;99.90;;;;;;4958161;28;20984;-71
2023/12/12 04:35:05;;;;;;;;;;;3.50;99.90;;;;;;4985012;28;20899;-70
2023/12/12 04:37:31;;;;;;;;;;;3.50;99.90;;;;;;4954591;28;21352;-71
2023/12/12 04:39:56;;;;;;;;;;;3.60;99.90;;;;;;4985276;28;19940;-70
2023/12/12 04:42:25;;;;;;;;;;;3.60;99.90;;;;;;4978955;28;19929;-70
2023/12/12 04:44:51;;;;;;;;;;;3.60;99.90;;;;;;4988718;28;20844;-70
2023/12/12 04:47:17;;;;;;;;;;;3.60;99.90;;;;;;4941079;28;19990;-70
2023/12/12 04:49:43;;;;;;;;;;;3.70;99.90;;;;;;4981986;28;19925;-72
2023/12/12 04:52:09;;;;;;;;;;;3.70;99.90;;;;;;4979942;28;19929;-70
2023/12/12 04:54:35;;;;;;;;;;;3.70;99.90;;;;;;4977310;28;19928;-70
2023/12/12 04:57:01;;;;;;;;;;;3.60;99.90;;;;;;4962800;28;19952;-70
2023/12/12 04:59:27;;;;;;;;;;;3.60;99.90;;;;;;4966541;28;21045;-70
2023/12/12 05:01:53;;;;;;;;;;;3.60;99.90;;;;;;4965561;28;19929;-70
2023/12/12 05:04:18;;;;;;;;;;;3.50;99.90;;;;;;4991878;28;19936;-70
2023/12/12 05:06:46;;;;;;;;;;;3.40;99.90;;;;;;4956144;28;19932;-71
2023/12/12 05:09:12;;;;;;;;;;;3.40;99.90;;;;;;4975415;28;19925;-70
2023/12/12 05:11:38;;;;;;;;;;;3.20;99.90;;;;;;4958931;28;19925;-70
2023/12/12 05:14:06;;;;;;;;;;;3.20;99.90;;;;;;4984442;28;19929;-69
2023/12/12 05:16:32;;;;;;;;;;;3.10;99.90;;;;;;4955892;28;20431;-69
2023/12/12 05:18:58;;;;;;;;;;;3.10;99.90;;;;;;4989947;28;19929;-69
2023/12/12 05:21:25;;;;;;;;;;;3.00;99.90;;;;;;4981965;28;20004;-70
2023/12/12 05:23:51;;;;;;;;;;;3.00;99.90;;;;;;4983829;28;19932;-70
2023/12/12 05:26:19;;;;;;;;;;;3.10;99.90;;;;;;4960678;28;19928;-69
2023/12/12 05:28:46;;;;;;;;;;;3.00;99.90;;;;;;5004883;28;19940;-69
2023/12/12 05:31:11;;;;;;;;;;;3.00;99.90;;;;;;4955109;28;19971;-70
2023/12/12 05:33:38;;;;;;;;;;;3.10;99.90;;;;;;4998312;28;19933;-72
2023/12/12 05:36:04;;;;;;;;;;;3.10;99.90;;;;;;4953123;28;19937;-71
2023/12/12 05:38:30;;;;;;;;;;;3.10;99.90;;;;;;4995003;28;20649;-70
2023/12/12 05:40:56;;;;;;;;;;;3.20;99.90;;;;;;4952796;28;19984;-69
2023/12/12 05:43:22;;;;;;;;;;;3.30;99.90;;;;;;4988819;28;21044;-69
2023/12/12 05:45:49;;;;;;;;;;;3.50;99.90;;;;;;4951406;28;20438;-69
2023/12/12 05:48:14;;;;;;;;;;;3.50;99.90;;;;;;5002100;28;19929;-69
2023/12/12 05:50:41;;;;;;;;;;;3.60;99.90;;;;;;4980490;28;20530;-70
2023/12/12 05:53:06;;;;;;;;;;;3.60;99.90;;;;;;4956514;28;19932;-70
2023/12/12 05:55:32;;;;;;;;;;;3.60;99.90;;;;;;4982382;28;20701;-70
2023/12/12 05:57:58;;;;;;;;;;;3.60;99.90;;;;;;4954184;28;19943;-70
2023/12/12 06:00:27;;;;;;;;;;;3.60;99.90;;;;;;4984159;28;20791;-69
2023/12/12 06:02:54;;;;;;;;;;;3.60;99.90;;;;;;4950741;28;19928;-70
2023/12/12 06:05:20;;;;;;;;;;;3.70;99.90;;;;;;4996235;28;19925;-69
2023/12/12 06:07:46;;;;;;;;;;;3.60;99.90;;;;;;4968530;28;19929;-69
2023/12/12 06:10:12;;;;;;;;;;;3.60;99.90;;;;;;4979550;28;20396;-70
2023/12/12 06:12:38;;;;;;;;;;;3.60;99.90;;;;;;4969177;28;19932;-70
2023/12/12 06:15:07;;;;;;;;;;;3.70;99.90;;;;;;4986651;28;19936;-70
2023/12/12 06:17:36;;;;;;;;;;;3.60;99.90;;;;;;4974290;28;19929;-71
2023/12/12 06:20:03;;;;;;;;;;;3.60;99.90;;;;;;4977642;28;19925;-71
2023/12/12 06:22:29;;;;;;;;;;;3.70;99.90;;;;;;4968415;28;19929;-71
2023/12/12 06:24:54;;;;;;;;;;;3.70;99.90;;;;;;4976999;28;19929;-71
2023/12/12 06:27:21;;;;;;;;;;;3.70;99.90;;;;;;4935041;28;20221;-71
2023/12/12 06:29:49;;;;;;;;;;;3.70;99.90;;;;;;4978779;28;19925;-70
2023/12/12 06:32:16;;;;;;;;;;;3.80;99.90;;;;;;4947820;28;19924;-70
2023/12/12 06:34:43;;;;;;;;;;;3.80;99.90;;;;;;4991875;28;19925;-71
2023/12/12 06:37:10;;;;;;;;;;;3.80;99.90;;;;;;4969869;28;20039;-70
2023/12/12 06:39:36;;;;;;;;;;;3.90;99.90;;;;;;4979217;28;19925;-69
2023/12/12 06:42:02;;;;;;;;;;;4.00;99.90;;;;;;4957019;28;19936;-70
2023/12/12 06:44:28;;;;;;;;;;;4.00;99.90;;;;;;4961189;28;19925;-70
2023/12/12 06:46:54;;;;;;;;;;;4.10;99.90;;;;;;4967692;28;19939;-70
2023/12/12 06:49:20;;;;;;;;;;;4.10;99.90;;;;;;4991240;28;20311;-70
2023/12/12 06:51:46;;;;;;;;;;;4.10;99.90;;;;;;4939045;28;19979;-70
2023/12/12 06:54:12;;;;;;;;;;;4.20;99.90;;;;;;4988118;28;19925;-70
2023/12/12 06:56:38;;;;;;;;;;;4.20;99.90;;;;;;4952264;28;20296;-71
2023/12/12 06:59:05;;;;;;;;;;;4.30;99.90;;;;;;4974108;28;19929;-71
2023/12/12 07:01:31;;;;;;;;;;;4.30;99.90;;;;;;4960464;28;19925;-68
2023/12/12 07:03:57;;;;;;;;;;;4.30;99.90;;;;;;4981487;28;19936;-67
2023/12/12 07:06:23;;;;;;;;;;;4.30;99.90;;;;;;4948612;28;19929;-67
2023/12/12 07:08:49;;;;;;;;;;;4.40;99.90;;;;;;4990052;28;19925;-67
2023/12/12 07:11:16;;;;;;;;;;;4.40;99.90;;;;;;4947105;28;20004;-68
2023/12/12 07:13:42;;;;;;;;;;;4.40;99.90;;;;;;4993068;28;20987;-67
2023/12/12 07:16:10;;;;;;;;;;;4.40;99.90;;;;;;4948182;28;19930;-68
2023/12/12 07:18:37;;;;;;;;;;;4.50;99.90;;;;;;4981835;28;19940;-68
2023/12/12 07:21:03;;;;;;;;;;;4.50;99.90;;;;;;4953287;28;19930;-68
2023/12/12 07:23:29;;;;;;;;;;;4.50;99.90;;;;;;4973317;28;21143;-67
2023/12/12 07:25:56;;;;;;;;;;;4.60;99.90;;;;;;4967988;28;19961;-67
2023/12/12 07:28:23;;;;;;;;;;;4.60;99.90;;;;;;4995020;28;19925;-67
2023/12/12 07:30:49;;;;;;;;;;;4.60;99.90;;;;;;4948766;28;19936;-68
2023/12/12 07:33:15;;;;;;;;;;;4.70;99.90;;;;;;4976955;28;19940;-68
2023/12/12 07:35:41;;;;;;;;;;;4.70;99.90;;;;;;4974611;28;21020;-67
2023/12/12 07:38:07;;;;;;;;;;;4.70;99.90;;;;;;4949740;28;19924;-68
2023/12/12 07:40:33;;;;;;;;;;;4.70;99.90;;;;;;4976167;28;21135;-67
2023/12/12 07:42:59;;;;;;;;;;;4.70;99.90;;;;;;4957459;28;19932;-67
2023/12/12 07:45:24;;;;;;;;;;;4.80;99.90;;;;;;4975852;28;19969;-67
2023/12/12 07:47:51;;;;;;;;;;;4.80;99.90;;;;;;4977950;28;19932;-67
2023/12/12 07:50:17;;;;;;;;;;;4.80;99.90;;;;;;4980180;28;19934;-67
2023/12/12 07:52:43;;;;;;;;;;;4.80;99.90;;;;;;4973836;28;19935;-67
2023/12/12 07:55:10;;;;;;;;;;;4.80;99.90;;;;;;4981413;28;19929;-67
2023/12/12 07:57:36;;;;;;;;;;;4.80;99.90;;;;;;4969713;28;20012;-68
2023/12/12 08:00:06;;;;;;;;;;;4.80;99.90;;;;;;4985068;28;20593;-67
2023/12/12 08:02:32;;;;;;;;;;;4.80;99.90;;;;;;4955474;28;19928;-67
2023/12/12 08:04:58;;;;;;;;;;;4.80;99.90;;;;;;4983874;28;19929;-67
2023/12/12 08:07:24;;;;;;;;;;;4.90;99.90;;;;;;4964573;28;19929;-68
2023/12/12 08:09:50;;;;;;;;;;;4.90;99.90;;;;;;4979642;28;20469;-68
2023/12/12 08:12:16;;;;;;;;;;;4.90;99.90;;;;;;4951904;28;21103;-67
2023/12/12 08:14:42;;;;;;;;;;;4.90;99.90;;;;;;4979123;28;21074;-67
2023/12/12 08:17:08;;;;;;;;;;;5.00;99.90;;;;;;4963585;28;19931;-68
2023/12/12 08:19:34;;;;;;;;;;;5.00;99.90;;;;;;4988018;28;19925;-67
2023/12/12 08:22:00;;;;;;;;;;;5.10;99.90;;;;;;4953688;28;19924;-68
2023/12/12 08:24:26;;;;;;;;;;;5.20;99.90;;;;;;4985703;28;19925;-67
2023/12/12 08:26:52;;;;;;;;;;;5.30;99.90;;;;;;4939869;28;19935;-67
2023/12/12 08:29:18;;;;;;;;;;;5.30;99.90;;;;;;4989569;28;20011;-68
2023/12/12 08:31:43;;;;;;;;;;;5.40;99.90;;;;;;4961917;28;20110;-68
2023/12/12 08:34:09;;;;;;;;;;;5.40;99.90;;;;;;4992074;28;20113;-68
2023/12/12 08:36:35;;;;;;;;;;;5.40;99.90;;;;;;4967605;28;19928;-65
2023/12/12 08:39:01;;;;;;;;;;;5.50;99.90;;;;;;5000114;28;19947;-67
2023/12/12 08:41:28;;;;;;;;;;;5.40;99.90;;;;;;4960049;28;20610;-67
2023/12/12 08:43:54;;;;;;;;;;;5.50;99.90;;;;;;4976256;28;19936;-68
2023/12/12 08:46:26;;;;;;;;;;;5.50;99.90;;;;;;4943771;28;19924;-67
2023/12/12 08:48:55;;;;;;;;;;;5.40;99.90;;;;;;4982946;28;19929;-67
2023/12/12 08:51:22;;;;;;;;;;;5.50;99.90;;;;;;4954494;28;19925;-66
2023/12/12 08:53:48;;;;;;;;;;;5.40;99.90;;;;;;4992169;28;20419;-67
2023/12/12 08:56:15;;;;;;;;;;;5.40;99.90;;;;;;4951678;28;19925;-67
2023/12/12 08:58:45;;;;;;;;;;;5.40;99.90;;;;;;4990900;28;20384;-67
2023/12/12 09:01:11;;;;;;;;;;;5.40;99.90;;;;;;4949900;28;19928;-68
2023/12/12 09:03:37;;;;;;;;;;;5.50;99.90;;;;;;4992516;28;20784;-68
2023/12/12 09:06:04;;;;;;;;;;;5.40;99.90;;;;;;4953735;28;19999;-68
2023/12/12 09:08:29;;;;;;;;;;;5.50;99.90;;;;;;4994795;28;19936;-66
2023/12/12 09:10:55;;;;;;;;;;;5.50;99.90;;;;;;4950093;28;19925;-67
2023/12/12 09:13:22;;;;;;;;;;;5.50;99.90;;;;;;5005648;28;19929;-67
2023/12/12 09:15:48;;;;;;;;;;;5.50;99.90;;;;;;4951362;28;19967;-68
2023/12/12 09:18:15;;;;;;;;;;;5.60;99.90;;;;;;4994141;28;20361;-68
2023/12/12 09:20:41;;;;;;;;;;;5.60;99.90;;;;;;4978938;28;19925;-67
2023/12/12 09:23:07;;;;;;;;;;;5.70;99.90;;;;;;4952753;28;19925;-68
2023/12/12 09:25:33;;;;;;;;;;;5.70;99.90;;;;;;4979599;28;19929;-67
2023/12/12 09:27:58;;;;;;;;;;;5.70;99.90;;;;;;4981881;28;20049;-69
2023/12/12 09:30:24;;;;;;;;;;;5.80;99.90;;;;;;4979490;28;19936;-68
2023/12/12 09:32:50;;;;;;;;;;;5.80;99.90;;;;;;4953846;28;19935;-68
2023/12/12 09:35:16;;;;;;;;;;;5.80;99.90;;;;;;4980896;28;19932;-68
2023/12/12 09:37:42;;;;;;;;;;;5.80;99.90;;;;;;4953311;28;20929;-68
2023/12/12 09:40:09;;;;;;;;;;;5.90;99.90;;;;;;4980334;28;19931;-68
2023/12/12 09:42:35;;;;;;;;;;;5.80;99.90;;;;;;4973344;28;19928;-67
2023/12/12 09:45:04;;;;;;;;;;;5.90;99.90;;;;;;4982353;28;19944;-68
2023/12/12 09:47:30;;;;;;;;;;;5.90;99.90;;;;;;4969170;28;19929;-66
2023/12/12 09:49:58;;;;;;;;;;;5.90;99.90;;;;;;4982718;28;19925;-68
2023/12/12 09:52:30;;;;;;;;;;;5.90;99.90;;;;;;4979763;28;19925;-67
2023/12/12 09:54:59;;;;;;;;;;;5.90;99.90;;;;;;4982446;28;19932;-66
2023/12/12 09:57:27;;;;;;;;;;;5.90;99.90;;;;;;4966925;28;19929;-67
2023/12/12 09:59:53;;;;;;;;;;;6.00;99.90;;;;;;4980680;28;20011;-67
2023/12/12 10:02:21;;;;;;;;;;;6.10;99.90;;;;;;4975214;28;19951;-68
2023/12/12 10:04:47;;;;;;;;;;;6.10;99.90;;;;;;4986450;28;19925;-67
2023/12/12 10:07:13;;;;;;;;;;;6.10;99.90;;;;;;4965765;28;20315;-67
2023/12/12 10:09:39;;;;;;;;;;;6.10;99.90;;;;;;4980978;28;19933;-66
2023/12/12 10:12:05;;;;;;;;;;;6.20;99.90;;;;;;4958367;28;19928;-68
2023/12/12 10:14:41;;;;;;;;;;;6.20;99.90;;;;;;4983856;28;20050;-68
2023/12/12 10:17:10;;;;;;;;;;;6.20;99.90;;;;;;4939210;28;19947;-68
2023/12/12 10:19:39;;;;;;;;;;;6.20;99.90;;;;;;4981383;28;19925;-68
2023/12/12 10:22:05;;;;;;;;;;;6.20;99.90;;;;;;4960291;28;19941;-68
2023/12/12 10:24:31;;;;;;;;;;;6.20;99.90;;;;;;4983594;28;20025;-68
2023/12/12 10:26:57;;;;;;;;;;;6.20;99.90;;;;;;4951328;28;21017;-67
2023/12/12 10:29:23;;;;;;;;;;;6.20;99.90;;;;;;4986676;28;19944;-68
2023/12/12 10:31:50;;;;;;;;;;;6.30;99.90;;;;;;4957328;28;19925;-68
2023/12/12 10:34:20;;;;;;;;;;;6.30;99.90;;;;;;4961003;28;19936;-68
2023/12/12 10:36:49;;;;;;;;;;;6.30;99.90;;;;;;4953871;28;19944;-67
2023/12/12 10:39:15;;;;;;;;;;;6.40;99.90;;;;;;4987514;28;20392;-68
2023/12/12 10:41:50;;;;;;;;;;;6.40;99.90;;;;;;4953748;28;19928;-66
2023/12/12 10:44:18;;;;;;;;;;;6.40;99.90;;;;;;4994692;28;19924;-68
2023/12/12 10:46:45;;;;;;;;;;;6.40;99.90;;;;;;4963335;28;19928;-67
2023/12/12 10:49:12;;;;;;;;;;;6.50;99.90;;;;;;4994640;28;19925;-68
2023/12/12 10:51:38;;;;;;;;;;;6.50;99.90;;;;;;4935117;28;19925;-68
2023/12/12 10:54:05;;;;;;;;;;;6.50;99.90;;;;;;4977707;28;20293;-66
2023/12/12 10:56:35;;;;;;;;;;;6.50;99.90;;;;;;4958219;28;19951;-67
2023/12/12 10:59:02;;;;;;;;;;;6.60;99.90;;;;;;4990310;28;19931;-67
2023/12/12 11:01:28;;;;;;;;;;;6.60;99.90;;;;;;4953896;28;19924;-67
2023/12/12 11:03:57;;;;;;;;;;;6.70;99.90;;;;;;4988611;28;19924;-66
2023/12/12 11:06:23;;;;;;;;;;;6.70;99.90;;;;;;4956100;28;19925;-66
2023/12/12 11:08:49;;;;;;;;;;;6.80;99.90;;;;;;4990526;28;19933;-67
2023/12/12 11:11:16;;;;;;;;;;;6.80;99.90;;;;;;4956722;28;19959;-67
2023/12/12 11:13:42;;;;;;;;;;;6.80;99.90;;;;;;4998102;28;19929;-66
2023/12/12 11:16:09;;;;;;;;;;;6.80;99.90;;;;;;4954582;28;19947;-66
2023/12/12 11:18:40;;;;;;;;;;;6.90;99.90;;;;;;5000752;28;19945;-66
2023/12/12 11:21:06;;;;;;;;;;;6.80;99.90;;;;;;4954156;28;20510;-67
2023/12/12 11:23:41;;;;;;;;;;;6.90;99.90;;;;;;4991627;28;19929;-66
2023/12/12 11:26:08;;;;;;;;;;;6.90;99.90;;;;;;4958185;28;20033;-67
2023/12/12 11:28:38;;;;;;;;;;;6.90;99.90;;;;;;4967259;28;19944;-66
2023/12/12 11:31:04;;;;;;;;;;;6.90;99.90;;;;;;4957345;28;19934;-67
2023/12/12 11:33:30;;;;;;;;;;;6.90;99.90;;;;;;5007584;28;20892;-67
2023/12/12 11:35:56;;;;;;;;;;;6.90;99.90;;;;;;4956021;28;19925;-67
2023/12/12 11:38:30;;;;;;;;;;;6.90;99.90;;;;;;4981173;28;20299;-67
2023/12/12 11:41:09;;;;;;;;;;;7.00;99.90;;;;;;4953672;28;21086;-66
2023/12/12 11:43:36;;;;;;;;;;;6.90;99.90;;;;;;4994753;28;19929;-67
2023/12/12 11:46:18;;;;;;;;;;;6.90;99.90;;;;;;4954438;28;19960;-66
2023/12/12 11:48:44;;;;;;;;;;;7.00;99.90;;;;;;4989711;28;19929;-67
2023/12/12 11:51:28;;;;;;;;;;;6.90;99.90;;;;;;4958452;28;19928;-66
2023/12/12 11:53:55;;;;;;;;;;;7.00;99.90;;;;;;4994195;28;19942;-67
2023/12/12 11:56:21;;;;;;;;;;;7.00;99.90;;;;;;4958868;28;20545;-67
2023/12/12 11:58:51;;;;;;;;;;;7.00;99.90;;;;;;4993797;28;20017;-66
2023/12/12 12:01:22;;;;;;;;;;;7.00;99.90;;;;;;4961173;28;20000;-67
2023/12/12 12:03:48;;;;;;;;;;;7.00;99.90;;;;;;5002462;28;21226;-67
2023/12/12 12:06:14;;;;;;;;;;;7.10;99.90;;;;;;4960324;28;19928;-67
2023/12/12 12:08:40;;;;;;;;;;;7.00;99.90;;;;;;5006662;28;20404;-67
2023/12/12 12:11:05;;;;;;;;;;;7.00;99.90;;;;;;4970861;28;19937;-67
2023/12/12 12:13:38;;;;;;;;;;;7.00;99.90;;;;;;5004213;28;19932;-67
2023/12/12 12:16:05;;;;;;;;;;;7.00;99.90;;;;;;4977165;28;19934;-68
2023/12/12 12:18:31;;;;;;;;;;;7.00;99.90;;;;;;5024002;28;19933;-68
2023/12/12 12:20:57;;;;;;;;;;;7.00;99.90;;;;;;4972311;28;20653;-69
2023/12/12 12:23:23;;;;;;;;;;;7.00;99.90;;;;;;5002341;28;19925;-68
2023/12/12 12:25:50;;;;;;;;;;;7.00;99.90;;;;;;4955184;28;20903;-68
2023/12/12 12:28:16;;;;;;;;;;;7.00;99.90;;;;;;4997763;28;19936;-68
2023/12/12 12:30:46;;;;;;;;;;;7.00;99.90;;;;;;4981263;28;19925;-66
2023/12/12 12:33:13;;;;;;;;;;;7.00;99.90;;;;;;5015075;28;20327;-67
2023/12/12 12:35:51;;;;;;;;;;;7.00;99.90;;;;;;4978105;28;21117;-67
2023/12/12 12:38:28;;;;;;;;;;;7.00;99.90;;;;;;4982884;28;20031;-69
2023/12/12 12:40:54;;;;;;;;;;;7.00;99.90;;;;;;4968605;28;19992;-67
2023/12/12 12:43:22;;;;;;;;;;;7.10;99.90;;;;;;4962729;28;19963;-67
2023/12/12 12:45:48;;;;;;;;;;;7.10;99.90;;;;;;4956872;28;20014;-67
2023/12/12 12:48:15;;;;;;;;;;;7.10;99.90;;;;;;4992588;28;19940;-67
2023/12/12 12:50:41;;;;;;;;;;;7.10;99.90;;;;;;4955315;28;19924;-67
2023/12/12 12:53:08;;;;;;;;;;;7.10;99.90;;;;;;4992647;28;19948;-67
2023/12/12 12:55:34;;;;;;;;;;;7.20;99.90;;;;;;4939069;28;20218;-68
2023/12/12 12:57:59;;;;;;;;;;;7.20;99.90;;;;;;4979951;28;20937;-68
2023/12/12 13:00:26;;;;;;;;;;;7.10;99.90;;;;;;4935734;28;20395;-68
2023/12/12 13:02:58;;;;;;;;;;;7.10;99.90;;;;;;4982269;28;19933;-67
2023/12/12 13:05:26;;;;;;;;;;;7.10;99.90;;;;;;4950753;28;19925;-67
2023/12/12 13:07:53;;;;;;;;;;;7.10;99.90;;;;;;5000737;28;19929;-67
2023/12/12 13:10:19;;;;;;;;;;;7.10;99.90;;;;;;4953137;28;20385;-67
2023/12/12 13:12:45;;;;;;;;;;;7.20;99.90;;;;;;4995744;28;19983;-67
2023/12/12 13:15:11;;;;;;;;;;;7.20;99.90;;;;;;4975069;28;19925;-67
2023/12/12 13:17:37;;;;;;;;;;;7.20;99.90;;;;;;4942701;28;19926;-67
2023/12/12 13:20:09;;;;;;;;;;;7.20;99.90;;;;;;4960813;28;19932;-66
2023/12/12 13:22:42;;;;;;;;;;;7.20;99.90;;;;;;4972133;28;19980;-67
2023/12/12 13:25:09;;;;;;;;;;;7.20;99.90;;;;;;4960727;28;19925;-67
2023/12/12 13:27:35;;;;;;;;;;;7.20;99.90;;;;;;4956777;28;20101;-67
2023/12/12 13:30:05;;;;;;;;;;;7.20;99.90;;;;;;4980265;28;20586;-68
2023/12/12 13:32:33;;;;;;;;;;;7.20;99.90;;;;;;4950126;28;19925;-67
2023/12/12 13:34:59;;;;;;;;;;;7.20;99.90;;;;;;4978763;28;19925;-67
2023/12/12 13:37:25;;;;;;;;;;;7.20;99.90;;;;;;4949745;28;19936;-67
2023/12/12 13:39:51;;;;;;;;;;;7.30;99.90;;;;;;4981292;28;19984;-68
2023/12/12 13:42:17;;;;;;;;;;;7.20;99.90;;;;;;4965962;28;19925;-68
2023/12/12 13:44:43;;;;;;;;;;;7.30;99.90;;;;;;4979836;28;20550;-68
2023/12/12 13:47:09;;;;;;;;;;;7.20;99.90;;;;;;4964146;28;19928;-68
2023/12/12 13:49:35;;;;;;;;;;;7.20;99.90;;;;;;4977471;28;20041;-67
2023/12/12 13:52:03;;;;;;;;;;;7.20;99.90;;;;;;4949684;28;19925;-67
2023/12/12 13:54:29;;;;;;;;;;;7.20;99.90;;;;;;4975197;28;19944;-67
2023/12/12 13:56:55;;;;;;;;;;;7.20;99.90;;;;;;4964311;28;19929;-68
2023/12/12 13:59:21;;;;;;;;;;;7.20;99.90;;;;;;4975068;28;19924;-67
2023/12/12 14:01:48;;;;;;;;;;;7.30;99.90;;;;;;4961313;28;21228;-67
2023/12/12 14:04:14;;;;;;;;;;;7.30;99.90;;;;;;4984820;28;19936;-69
2023/12/12 14:06:40;;;;;;;;;;;7.20;99.90;;;;;;4955265;28;19936;-68
2023/12/12 14:09:09;;;;;;;;;;;7.20;99.90;;;;;;4981407;28;20474;-67
2023/12/12 14:11:35;;;;;;;;;;;7.20;99.90;;;;;;4962774;28;19929;-68
2023/12/12 14:14:01;;;;;;;;;;;7.20;99.90;;;;;;4982825;28;20975;-68
2023/12/12 14:16:27;;;;;;;;;;;7.20;99.90;;;;;;4959457;28;19935;-68
2023/12/12 14:18:53;;;;;;;;;;;7.20;99.90;;;;;;4974843;28;20060;-68
2023/12/12 14:21:19;;;;;;;;;;;7.20;99.90;;;;;;4959639;28;19925;-67
2023/12/12 14:23:45;;;;;;;;;;;7.20;99.90;;;;;;4977149;28;19939;-69
2023/12/12 14:26:16;;;;;;;;;;;7.20;99.90;;;;;;4953575;28;19932;-67
2023/12/12 14:28:44;;;;;;;;;;;7.20;99.90;;;;;;5005037;28;20557;-67